sensor_id;sensor_type;location;lat;lon;timestamp;P1;durP1;ratioP1;P2;durP2;ratioP2
6269;SDS011;3168;51.684;6.954;2024-01-15T00:00:42;19.50;;;11.40;;
6269;SDS011;3168;51.684;6.954;2024-01-15T00:03:08;17.30;;;10.43;;
6269;SDS011;3168;51.684;6.954;2024-01-15T00:05:34;14.57;;;11.00;;
6269;SDS011;3168;51.684;6.954;2024-01-15T00:08:00;12.57;;;9.57;;
6269;SDS011;3168;51.684;6.954;2024-01-15T00:10:26;19.33;;;11.03;;
6269;SDS011;3168;51.684;6.954;2024-01-15T00:12:51;12.87;;;7.83;;
6269;SDS011;3168;51.684;6.954;2024-01-15T00:15:17;15.20;;;8.17;;
6269;SDS011;3168;51.684;6.954;2024-01-15T00:17:43;18.60;;;10.50;;
6269;SDS011;3168;51.684;6.954;2024-01-15T00:20:09;17.40;;;10.30;;
6269;SDS011;3168;51.684;6.954;2024-01-15T00:22:35;30.03;;;11.03;;
6269;SDS011;3168;51.684;6.954;2024-01-15T00:25:02;21.47;;;9.33;;
6269;SDS011;3168;51.684;6.954;2024-01-15T00:27:27;19.57;;;10.60;;
6269;SDS011;3168;51.684;6.954;2024-01-15T00:29:53;10.57;;;8.10;;
6269;SDS011;3168;51.684;6.954;2024-01-15T00:32:19;13.30;;;8.43;;
6269;SDS011;3168;51.684;6.954;2024-01-15T00:34:45;10.07;;;9.00;;
6269;SDS011;3168;51.684;6.954;2024-01-15T00:37:10;25.97;;;11.80;;
6269;SDS011;3168;51.684;6.954;2024-01-15T00:39:36;17.83;;;10.67;;
6269;SDS011;3168;51.684;6.954;2024-01-15T00:42:02;14.17;;;9.37;;
6269;SDS011;3168;51.684;6.954;2024-01-15T00:44:29;24.43;;;10.23;;
6269;SDS011;3168;51.684;6.954;2024-01-15T00:46:55;14.27;;;10.20;;
6269;SDS011;3168;51.684;6.954;2024-01-15T00:49:20;27.13;;;11.10;;
6269;SDS011;3168;51.684;6.954;2024-01-15T00:51:47;18.33;;;7.57;;
6269;SDS011;3168;51.684;6.954;2024-01-15T00:54:12;18.70;;;8.73;;
6269;SDS011;3168;51.684;6.954;2024-01-15T00:56:38;12.13;;;7.17;;
6269;SDS011;3168;51.684;6.954;2024-01-15T00:59:05;20.30;;;9.47;;
6269;SDS011;3168;51.684;6.954;2024-01-15T01:01:31;24.93;;;9.47;;
6269;SDS011;3168;51.684;6.954;2024-01-15T01:03:57;13.63;;;9.70;;
6269;SDS011;3168;51.684;6.954;2024-01-15T01:06:23;20.30;;;10.57;;
6269;SDS011;3168;51.684;6.954;2024-01-15T01:08:49;14.67;;;6.97;;
6269;SDS011;3168;51.684;6.954;2024-01-15T01:11:15;12.43;;;10.73;;
6269;SDS011;3168;51.684;6.954;2024-01-15T01:13:40;18.47;;;9.77;;
6269;SDS011;3168;51.684;6.954;2024-01-15T01:16:06;32.03;;;8.90;;
6269;SDS011;3168;51.684;6.954;2024-01-15T01:18:32;13.37;;;8.87;;
6269;SDS011;3168;51.684;6.954;2024-01-15T01:20:58;13.33;;;7.23;;
6269;SDS011;3168;51.684;6.954;2024-01-15T01:23:24;20.50;;;9.47;;
6269;SDS011;3168;51.684;6.954;2024-01-15T01:28:22;21.10;;;10.10;;
6269;SDS011;3168;51.684;6.954;2024-01-15T01:30:48;20.73;;;8.90;;
6269;SDS011;3168;51.684;6.954;2024-01-15T01:33:14;11.37;;;8.13;;
6269;SDS011;3168;51.684;6.954;2024-01-15T01:35:41;17.70;;;10.13;;
6269;SDS011;3168;51.684;6.954;2024-01-15T01:38:06;16.73;;;10.20;;
6269;SDS011;3168;51.684;6.954;2024-01-15T01:40:32;17.20;;;9.40;;
6269;SDS011;3168;51.684;6.954;2024-01-15T01:42:58;19.93;;;8.77;;
6269;SDS011;3168;51.684;6.954;2024-01-15T01:45:24;5.77;;;4.63;;
6269;SDS011;3168;51.684;6.954;2024-01-15T01:47:50;14.80;;;8.07;;
6269;SDS011;3168;51.684;6.954;2024-01-15T01:50:16;7.43;;;6.60;;
6269;SDS011;3168;51.684;6.954;2024-01-15T01:52:41;9.40;;;6.50;;
6269;SDS011;3168;51.684;6.954;2024-01-15T01:55:07;16.00;;;8.23;;
6269;SDS011;3168;51.684;6.954;2024-01-15T01:57:33;22.43;;;9.00;;
6269;SDS011;3168;51.684;6.954;2024-01-15T01:59:59;7.93;;;7.27;;
6269;SDS011;3168;51.684;6.954;2024-01-15T02:02:25;8.10;;;6.57;;
6269;SDS011;3168;51.684;6.954;2024-01-15T02:04:51;9.00;;;5.50;;
6269;SDS011;3168;51.684;6.954;2024-01-15T02:07:16;7.60;;;7.00;;
6269;SDS011;3168;51.684;6.954;2024-01-15T02:09:43;15.23;;;7.87;;
6269;SDS011;3168;51.684;6.954;2024-01-15T02:12:08;10.03;;;6.00;;
6269;SDS011;3168;51.684;6.954;2024-01-15T02:14:34;8.77;;;7.77;;
6269;SDS011;3168;51.684;6.954;2024-01-15T02:17:00;6.70;;;5.70;;
6269;SDS011;3168;51.684;6.954;2024-01-15T02:19:26;8.90;;;7.73;;
6269;SDS011;3168;51.684;6.954;2024-01-15T02:21:51;9.03;;;6.50;;
6269;SDS011;3168;51.684;6.954;2024-01-15T02:24:17;13.33;;;7.40;;
6269;SDS011;3168;51.684;6.954;2024-01-15T02:26:43;10.90;;;6.40;;
6269;SDS011;3168;51.684;6.954;2024-01-15T02:29:09;3.57;;;3.30;;
6269;SDS011;3168;51.684;6.954;2024-01-15T02:31:35;4.90;;;4.70;;
6269;SDS011;3168;51.684;6.954;2024-01-15T02:34:02;14.03;;;8.23;;
6269;SDS011;3168;51.684;6.954;2024-01-15T02:36:27;8.33;;;6.23;;
6269;SDS011;3168;51.684;6.954;2024-01-15T02:38:53;10.20;;;8.20;;
6269;SDS011;3168;51.684;6.954;2024-01-15T02:41:19;6.83;;;6.17;;
6269;SDS011;3168;51.684;6.954;2024-01-15T02:43:45;15.97;;;6.20;;
6269;SDS011;3168;51.684;6.954;2024-01-15T02:46:11;11.17;;;5.97;;
6269;SDS011;3168;51.684;6.954;2024-01-15T02:48:37;10.67;;;6.47;;
6269;SDS011;3168;51.684;6.954;2024-01-15T02:51:03;5.63;;;5.13;;
6269;SDS011;3168;51.684;6.954;2024-01-15T02:53:29;11.50;;;7.47;;
6269;SDS011;3168;51.684;6.954;2024-01-15T02:55:56;13.60;;;6.00;;
6269;SDS011;3168;51.684;6.954;2024-01-15T02:58:22;4.87;;;4.47;;
6269;SDS011;3168;51.684;6.954;2024-01-15T03:00:50;8.67;;;5.20;;
6269;SDS011;3168;51.684;6.954;2024-01-15T03:03:16;6.10;;;5.70;;
6269;SDS011;3168;51.684;6.954;2024-01-15T03:05:42;8.63;;;4.80;;
6269;SDS011;3168;51.684;6.954;2024-01-15T03:08:08;22.60;;;7.23;;
6269;SDS011;3168;51.684;6.954;2024-01-15T03:10:34;12.90;;;7.00;;
6269;SDS011;3168;51.684;6.954;2024-01-15T03:13:00;11.47;;;5.30;;
6269;SDS011;3168;51.684;6.954;2024-01-15T03:15:26;3.60;;;3.30;;
6269;SDS011;3168;51.684;6.954;2024-01-15T03:17:52;7.73;;;6.80;;
6269;SDS011;3168;51.684;6.954;2024-01-15T03:20:18;14.70;;;6.90;;
6269;SDS011;3168;51.684;6.954;2024-01-15T03:22:44;15.53;;;6.77;;
6269;SDS011;3168;51.684;6.954;2024-01-15T03:25:10;12.60;;;8.43;;
6269;SDS011;3168;51.684;6.954;2024-01-15T03:27:36;6.12;;;5.15;;
6269;SDS011;3168;51.684;6.954;2024-01-15T03:30:02;12.63;;;7.50;;
6269;SDS011;3168;51.684;6.954;2024-01-15T03:32:29;12.50;;;9.67;;
6269;SDS011;3168;51.684;6.954;2024-01-15T03:34:55;6.53;;;4.47;;
6269;SDS011;3168;51.684;6.954;2024-01-15T03:37:21;9.00;;;6.60;;
6269;SDS011;3168;51.684;6.954;2024-01-15T03:39:47;5.53;;;5.03;;
6269;SDS011;3168;51.684;6.954;2024-01-15T03:42:14;7.23;;;5.93;;
6269;SDS011;3168;51.684;6.954;2024-01-15T03:44:40;9.13;;;7.00;;
6269;SDS011;3168;51.684;6.954;2024-01-15T03:47:06;10.20;;;5.80;;
6269;SDS011;3168;51.684;6.954;2024-01-15T03:49:32;12.13;;;5.87;;
6269;SDS011;3168;51.684;6.954;2024-01-15T03:51:58;8.97;;;6.37;;
6269;SDS011;3168;51.684;6.954;2024-01-15T03:54:24;9.63;;;7.00;;
6269;SDS011;3168;51.684;6.954;2024-01-15T03:56:49;17.67;;;4.73;;
6269;SDS011;3168;51.684;6.954;2024-01-15T03:59:15;8.10;;;5.50;;
6269;SDS011;3168;51.684;6.954;2024-01-15T04:01:41;13.10;;;5.50;;
6269;SDS011;3168;51.684;6.954;2024-01-15T04:04:07;6.67;;;5.40;;
6269;SDS011;3168;51.684;6.954;2024-01-15T04:06:33;5.47;;;3.87;;
6269;SDS011;3168;51.684;6.954;2024-01-15T04:08:59;6.07;;;4.90;;
6269;SDS011;3168;51.684;6.954;2024-01-15T04:11:25;12.40;;;7.63;;
6269;SDS011;3168;51.684;6.954;2024-01-15T04:13:51;10.73;;;6.20;;
6269;SDS011;3168;51.684;6.954;2024-01-15T04:16:17;5.17;;;4.80;;
6269;SDS011;3168;51.684;6.954;2024-01-15T04:18:43;6.73;;;6.00;;
6269;SDS011;3168;51.684;6.954;2024-01-15T04:21:09;4.23;;;3.93;;
6269;SDS011;3168;51.684;6.954;2024-01-15T04:23:34;5.40;;;3.40;;
6269;SDS011;3168;51.684;6.954;2024-01-15T04:26:00;2.70;;;2.67;;
6269;SDS011;3168;51.684;6.954;2024-01-15T04:28:26;6.27;;;5.00;;
6269;SDS011;3168;51.684;6.954;2024-01-15T04:30:52;11.63;;;3.80;;
6269;SDS011;3168;51.684;6.954;2024-01-15T04:33:18;6.20;;;3.90;;
6269;SDS011;3168;51.684;6.954;2024-01-15T04:35:44;7.47;;;3.90;;
6269;SDS011;3168;51.684;6.954;2024-01-15T04:38:09;9.43;;;4.00;;
6269;SDS011;3168;51.684;6.954;2024-01-15T04:40:35;3.40;;;3.10;;
6269;SDS011;3168;51.684;6.954;2024-01-15T04:43:01;3.90;;;2.70;;
6269;SDS011;3168;51.684;6.954;2024-01-15T04:45:27;3.50;;;3.20;;
6269;SDS011;3168;51.684;6.954;2024-01-15T04:47:53;3.87;;;3.57;;
6269;SDS011;3168;51.684;6.954;2024-01-15T04:50:19;4.63;;;4.27;;
6269;SDS011;3168;51.684;6.954;2024-01-15T04:52:45;4.60;;;2.70;;
6269;SDS011;3168;51.684;6.954;2024-01-15T04:55:11;4.47;;;4.13;;
6269;SDS011;3168;51.684;6.954;2024-01-15T04:57:37;2.90;;;2.70;;
6269;SDS011;3168;51.684;6.954;2024-01-15T05:00:03;4.37;;;3.97;;
6269;SDS011;3168;51.684;6.954;2024-01-15T05:02:30;4.43;;;3.90;;
6269;SDS011;3168;51.684;6.954;2024-01-15T05:04:55;1.80;;;1.80;;
6269;SDS011;3168;51.684;6.954;2024-01-15T05:07:21;3.70;;;3.53;;
6269;SDS011;3168;51.684;6.954;2024-01-15T05:09:47;4.67;;;4.27;;
6269;SDS011;3168;51.684;6.954;2024-01-15T05:12:13;4.23;;;3.90;;
6269;SDS011;3168;51.684;6.954;2024-01-15T05:14:39;3.83;;;3.50;;
6269;SDS011;3168;51.684;6.954;2024-01-15T05:17:04;3.47;;;3.23;;
6269;SDS011;3168;51.684;6.954;2024-01-15T05:19:30;11.83;;;6.33;;
6269;SDS011;3168;51.684;6.954;2024-01-15T05:21:56;4.10;;;3.80;;
6269;SDS011;3168;51.684;6.954;2024-01-15T05:24:22;4.73;;;3.40;;
6269;SDS011;3168;51.684;6.954;2024-01-15T05:26:48;5.32;;;2.45;;
6269;SDS011;3168;51.684;6.954;2024-01-15T05:29:14;13.63;;;5.80;;
6269;SDS011;3168;51.684;6.954;2024-01-15T05:31:39;3.07;;;2.87;;
6269;SDS011;3168;51.684;6.954;2024-01-15T05:34:06;16.40;;;3.80;;
6269;SDS011;3168;51.684;6.954;2024-01-15T05:36:32;8.80;;;5.13;;
6269;SDS011;3168;51.684;6.954;2024-01-15T05:38:58;5.20;;;3.80;;
6269;SDS011;3168;51.684;6.954;2024-01-15T05:41:23;3.40;;;3.10;;
6269;SDS011;3168;51.684;6.954;2024-01-15T05:43:49;3.37;;;3.17;;
6269;SDS011;3168;51.684;6.954;2024-01-15T05:46:15;4.67;;;4.37;;
6269;SDS011;3168;51.684;6.954;2024-01-15T05:48:41;3.03;;;2.70;;
6269;SDS011;3168;51.684;6.954;2024-01-15T05:51:07;3.40;;;3.20;;
6269;SDS011;3168;51.684;6.954;2024-01-15T05:53:33;3.70;;;2.30;;
6269;SDS011;3168;51.684;6.954;2024-01-15T05:56:00;3.20;;;3.00;;
6269;SDS011;3168;51.684;6.954;2024-01-15T05:58:26;3.10;;;2.80;;
6269;SDS011;3168;51.684;6.954;2024-01-15T06:00:52;3.00;;;2.90;;
6269;SDS011;3168;51.684;6.954;2024-01-15T06:03:18;4.20;;;4.00;;
6269;SDS011;3168;51.684;6.954;2024-01-15T06:05:44;5.17;;;4.07;;
6269;SDS011;3168;51.684;6.954;2024-01-15T06:08:10;3.63;;;3.33;;
6269;SDS011;3168;51.684;6.954;2024-01-15T06:10:35;3.67;;;3.37;;
6269;SDS011;3168;51.684;6.954;2024-01-15T06:13:01;3.13;;;2.93;;
6269;SDS011;3168;51.684;6.954;2024-01-15T06:15:28;4.10;;;3.80;;
6269;SDS011;3168;51.684;6.954;2024-01-15T06:17:54;3.13;;;2.10;;
6269;SDS011;3168;51.684;6.954;2024-01-15T06:20:19;5.63;;;4.37;;
6269;SDS011;3168;51.684;6.954;2024-01-15T06:22:45;6.03;;;4.10;;
6269;SDS011;3168;51.684;6.954;2024-01-15T06:25:12;4.70;;;4.33;;
6269;SDS011;3168;51.684;6.954;2024-01-15T06:27:38;6.00;;;4.40;;
6269;SDS011;3168;51.684;6.954;2024-01-15T06:30:04;18.27;;;4.20;;
6269;SDS011;3168;51.684;6.954;2024-01-15T06:32:30;4.03;;;3.73;;
6269;SDS011;3168;51.684;6.954;2024-01-15T06:34:56;5.67;;;5.07;;
6269;SDS011;3168;51.684;6.954;2024-01-15T06:37:22;3.27;;;2.97;;
6269;SDS011;3168;51.684;6.954;2024-01-15T06:39:48;30.47;;;5.70;;
6269;SDS011;3168;51.684;6.954;2024-01-15T06:42:13;4.73;;;4.37;;
6269;SDS011;3168;51.684;6.954;2024-01-15T06:44:40;5.00;;;4.60;;
6269;SDS011;3168;51.684;6.954;2024-01-15T06:47:06;7.03;;;5.43;;
6269;SDS011;3168;51.684;6.954;2024-01-15T06:49:34;8.53;;;3.70;;
6269;SDS011;3168;51.684;6.954;2024-01-15T06:52:03;3.20;;;3.00;;
6269;SDS011;3168;51.684;6.954;2024-01-15T06:54:29;7.00;;;5.90;;
6269;SDS011;3168;51.684;6.954;2024-01-15T06:56:55;4.23;;;3.80;;
6269;SDS011;3168;51.684;6.954;2024-01-15T06:59:21;3.87;;;2.87;;
6269;SDS011;3168;51.684;6.954;2024-01-15T07:01:47;2.53;;;2.43;;
6269;SDS011;3168;51.684;6.954;2024-01-15T07:04:13;3.00;;;2.80;;
6269;SDS011;3168;51.684;6.954;2024-01-15T07:06:38;17.67;;;3.40;;
6269;SDS011;3168;51.684;6.954;2024-01-15T07:09:04;3.00;;;2.43;;
6269;SDS011;3168;51.684;6.954;2024-01-15T07:11:30;1.87;;;1.80;;
6269;SDS011;3168;51.684;6.954;2024-01-15T07:13:56;1.63;;;1.60;;
6269;SDS011;3168;51.684;6.954;2024-01-15T07:16:22;1.63;;;1.53;;
6269;SDS011;3168;51.684;6.954;2024-01-15T07:18:47;2.63;;;2.53;;
6269;SDS011;3168;51.684;6.954;2024-01-15T07:21:13;3.20;;;2.50;;
6269;SDS011;3168;51.684;6.954;2024-01-15T07:23:39;1.90;;;1.90;;
6269;SDS011;3168;51.684;6.954;2024-01-15T07:26:05;3.17;;;1.77;;
6269;SDS011;3168;51.684;6.954;2024-01-15T07:28:31;1.35;;;1.35;;
6269;SDS011;3168;51.684;6.954;2024-01-15T07:30:57;1.53;;;1.53;;
6269;SDS011;3168;51.684;6.954;2024-01-15T07:33:23;5.87;;;1.57;;
6269;SDS011;3168;51.684;6.954;2024-01-15T07:35:49;1.87;;;1.50;;
6269;SDS011;3168;51.684;6.954;2024-01-15T07:38:15;1.53;;;1.43;;
6269;SDS011;3168;51.684;6.954;2024-01-15T07:40:41;1.57;;;1.57;;
6269;SDS011;3168;51.684;6.954;2024-01-15T07:43:06;1.10;;;1.10;;
6269;SDS011;3168;51.684;6.954;2024-01-15T07:45:32;2.63;;;1.40;;
6269;SDS011;3168;51.684;6.954;2024-01-15T07:47:58;3.97;;;3.63;;
6269;SDS011;3168;51.684;6.954;2024-01-15T07:50:24;2.23;;;2.13;;
6269;SDS011;3168;51.684;6.954;2024-01-15T07:52:50;4.00;;;1.93;;
6269;SDS011;3168;51.684;6.954;2024-01-15T07:55:16;2.40;;;2.30;;
6269;SDS011;3168;51.684;6.954;2024-01-15T07:57:41;2.80;;;2.60;;
6269;SDS011;3168;51.684;6.954;2024-01-15T08:00:08;5.13;;;2.07;;
6269;SDS011;3168;51.684;6.954;2024-01-15T08:02:34;2.03;;;1.93;;
6269;SDS011;3168;51.684;6.954;2024-01-15T08:05:00;7.33;;;1.80;;
6269;SDS011;3168;51.684;6.954;2024-01-15T08:07:26;1.50;;;1.43;;
6269;SDS011;3168;51.684;6.954;2024-01-15T08:09:52;1.80;;;1.80;;
6269;SDS011;3168;51.684;6.954;2024-01-15T08:12:18;2.63;;;2.43;;
6269;SDS011;3168;51.684;6.954;2024-01-15T08:14:44;1.90;;;1.80;;
6269;SDS011;3168;51.684;6.954;2024-01-15T08:17:10;10.30;;;2.17;;
6269;SDS011;3168;51.684;6.954;2024-01-15T08:19:36;2.80;;;2.70;;
6269;SDS011;3168;51.684;6.954;2024-01-15T08:22:02;1.57;;;1.57;;
6269;SDS011;3168;51.684;6.954;2024-01-15T08:24:28;2.30;;;2.20;;
6269;SDS011;3168;51.684;6.954;2024-01-15T08:26:54;1.90;;;1.80;;
6269;SDS011;3168;51.684;6.954;2024-01-15T08:29:20;3.50;;;2.10;;
6269;SDS011;3168;51.684;6.954;2024-01-15T08:31:46;2.53;;;2.43;;
6269;SDS011;3168;51.684;6.954;2024-01-15T08:34:12;2.73;;;2.63;;
6269;SDS011;3168;51.684;6.954;2024-01-15T08:36:38;2.00;;;1.90;;
6269;SDS011;3168;51.684;6.954;2024-01-15T08:39:04;3.90;;;3.13;;
6269;SDS011;3168;51.684;6.954;2024-01-15T08:41:31;3.10;;;3.00;;
6269;SDS011;3168;51.684;6.954;2024-01-15T08:43:55;2.77;;;2.67;;
6269;SDS011;3168;51.684;6.954;2024-01-15T08:46:21;2.63;;;2.43;;
6269;SDS011;3168;51.684;6.954;2024-01-15T08:48:47;4.70;;;3.53;;
6269;SDS011;3168;51.684;6.954;2024-01-15T08:51:13;5.03;;;3.43;;
6269;SDS011;3168;51.684;6.954;2024-01-15T08:53:38;2.90;;;2.77;;
6269;SDS011;3168;51.684;6.954;2024-01-15T08:56:05;3.60;;;3.50;;
6269;SDS011;3168;51.684;6.954;2024-01-15T08:58:30;3.13;;;3.00;;
6269;SDS011;3168;51.684;6.954;2024-01-15T09:00:57;3.87;;;3.63;;
6269;SDS011;3168;51.684;6.954;2024-01-15T09:03:23;4.27;;;3.87;;
6269;SDS011;3168;51.684;6.954;2024-01-15T09:05:48;10.23;;;3.47;;
6269;SDS011;3168;51.684;6.954;2024-01-15T09:08:14;3.63;;;3.43;;
6269;SDS011;3168;51.684;6.954;2024-01-15T09:10:40;2.87;;;2.70;;
6269;SDS011;3168;51.684;6.954;2024-01-15T09:13:06;5.37;;;3.33;;
6269;SDS011;3168;51.684;6.954;2024-01-15T09:15:32;1.03;;;1.03;;
6269;SDS011;3168;51.684;6.954;2024-01-15T09:17:58;3.33;;;3.13;;
6269;SDS011;3168;51.684;6.954;2024-01-15T09:20:23;13.73;;;1.50;;
6269;SDS011;3168;51.684;6.954;2024-01-15T09:22:49;1.83;;;1.77;;
6269;SDS011;3168;51.684;6.954;2024-01-15T09:25:15;2.30;;;2.07;;
6269;SDS011;3168;51.684;6.954;2024-01-15T09:27:42;2.20;;;1.48;;
6269;SDS011;3168;51.684;6.954;2024-01-15T09:30:08;2.03;;;1.80;;
6269;SDS011;3168;51.684;6.954;2024-01-15T09:32:35;1.40;;;1.27;;
6269;SDS011;3168;51.684;6.954;2024-01-15T09:35:00;1.03;;;1.03;;
6269;SDS011;3168;51.684;6.954;2024-01-15T09:37:26;1.00;;;1.00;;
6269;SDS011;3168;51.684;6.954;2024-01-15T09:39:53;10.43;;;1.73;;
6269;SDS011;3168;51.684;6.954;2024-01-15T09:42:18;1.13;;;1.00;;
6269;SDS011;3168;51.684;6.954;2024-01-15T09:44:45;0.90;;;0.90;;
6269;SDS011;3168;51.684;6.954;2024-01-15T09:47:10;3.10;;;0.93;;
6269;SDS011;3168;51.684;6.954;2024-01-15T09:49:36;0.80;;;0.80;;
6269;SDS011;3168;51.684;6.954;2024-01-15T09:52:02;1.33;;;1.33;;
6269;SDS011;3168;51.684;6.954;2024-01-15T09:54:28;1.10;;;1.10;;
6269;SDS011;3168;51.684;6.954;2024-01-15T09:56:55;1.07;;;0.97;;
6269;SDS011;3168;51.684;6.954;2024-01-15T09:59:21;0.90;;;0.90;;
6269;SDS011;3168;51.684;6.954;2024-01-15T10:01:46;1.40;;;1.30;;
6269;SDS011;3168;51.684;6.954;2024-01-15T10:04:12;1.07;;;1.07;;
6269;SDS011;3168;51.684;6.954;2024-01-15T10:06:38;1.37;;;1.37;;
6269;SDS011;3168;51.684;6.954;2024-01-15T10:09:04;2.60;;;2.00;;
6269;SDS011;3168;51.684;6.954;2024-01-15T10:11:30;1.73;;;1.63;;
6269;SDS011;3168;51.684;6.954;2024-01-15T10:13:56;1.63;;;1.63;;
6269;SDS011;3168;51.684;6.954;2024-01-15T10:16:23;1.80;;;1.70;;
6269;SDS011;3168;51.684;6.954;2024-01-15T10:18:49;1.50;;;1.50;;
6269;SDS011;3168;51.684;6.954;2024-01-15T10:21:15;1.33;;;1.30;;
6269;SDS011;3168;51.684;6.954;2024-01-15T10:23:41;2.60;;;2.40;;
6269;SDS011;3168;51.684;6.954;2024-01-15T10:26:08;1.87;;;1.87;;
6269;SDS011;3168;51.684;6.954;2024-01-15T10:28:33;4.68;;;2.12;;
6269;SDS011;3168;51.684;6.954;2024-01-15T10:30:59;1.77;;;1.77;;
6269;SDS011;3168;51.684;6.954;2024-01-15T10:33:25;2.27;;;2.20;;
6269;SDS011;3168;51.684;6.954;2024-01-15T10:35:54;1.80;;;1.60;;
6269;SDS011;3168;51.684;6.954;2024-01-15T10:38:20;2.60;;;2.50;;
6269;SDS011;3168;51.684;6.954;2024-01-15T10:40:46;2.70;;;2.60;;
6269;SDS011;3168;51.684;6.954;2024-01-15T10:43:11;2.90;;;2.73;;
6269;SDS011;3168;51.684;6.954;2024-01-15T10:45:38;2.27;;;2.17;;
6269;SDS011;3168;51.684;6.954;2024-01-15T10:48:04;1.20;;;1.20;;
6269;SDS011;3168;51.684;6.954;2024-01-15T10:50:30;3.70;;;1.23;;
6269;SDS011;3168;51.684;6.954;2024-01-15T10:52:56;10.73;;;2.27;;
6269;SDS011;3168;51.684;6.954;2024-01-15T10:55:23;1.20;;;1.20;;
6269;SDS011;3168;51.684;6.954;2024-01-15T10:57:47;3.87;;;2.40;;
6269;SDS011;3168;51.684;6.954;2024-01-15T11:00:13;1.37;;;1.37;;
6269;SDS011;3168;51.684;6.954;2024-01-15T11:02:39;2.57;;;2.47;;
6269;SDS011;3168;51.684;6.954;2024-01-15T11:05:05;1.70;;;1.60;;
6269;SDS011;3168;51.684;6.954;2024-01-15T11:07:31;3.90;;;3.07;;
6269;SDS011;3168;51.684;6.954;2024-01-15T11:09:57;2.20;;;2.07;;
6269;SDS011;3168;51.684;6.954;2024-01-15T11:12:24;4.53;;;1.40;;
6269;SDS011;3168;51.684;6.954;2024-01-15T11:14:50;2.03;;;2.03;;
6269;SDS011;3168;51.684;6.954;2024-01-15T11:17:16;1.93;;;1.83;;
6269;SDS011;3168;51.684;6.954;2024-01-15T11:19:45;2.80;;;1.30;;
6269;SDS011;3168;51.684;6.954;2024-01-15T11:24:48;2.60;;;1.63;;
6269;SDS011;3168;51.684;6.954;2024-01-15T11:27:14;3.17;;;0.60;;
6269;SDS011;3168;51.684;6.954;2024-01-15T11:29:39;0.98;;;0.98;;
6269;SDS011;3168;51.684;6.954;2024-01-15T11:32:07;0.77;;;0.77;;
6269;SDS011;3168;51.684;6.954;2024-01-15T11:37:11;0.67;;;0.67;;
6269;SDS011;3168;51.684;6.954;2024-01-15T11:39:39;1.03;;;1.03;;
6269;SDS011;3168;51.684;6.954;2024-01-15T11:42:05;0.90;;;0.90;;
6269;SDS011;3168;51.684;6.954;2024-01-15T11:44:31;0.73;;;0.70;;
6269;SDS011;3168;51.684;6.954;2024-01-15T11:46:59;0.87;;;0.87;;
6269;SDS011;3168;51.684;6.954;2024-01-15T11:49:32;1.20;;;1.20;;
6269;SDS011;3168;51.684;6.954;2024-01-15T11:51:58;0.90;;;0.90;;
6269;SDS011;3168;51.684;6.954;2024-01-15T11:54:24;1.00;;;1.00;;
6269;SDS011;3168;51.684;6.954;2024-01-15T11:56:50;1.17;;;1.10;;
6269;SDS011;3168;51.684;6.954;2024-01-15T11:59:16;1.20;;;1.20;;
6269;SDS011;3168;51.684;6.954;2024-01-15T12:01:42;2.70;;;2.20;;
6269;SDS011;3168;51.684;6.954;2024-01-15T12:04:08;2.30;;;2.20;;
6269;SDS011;3168;51.684;6.954;2024-01-15T12:06:34;3.90;;;2.20;;
6269;SDS011;3168;51.684;6.954;2024-01-15T12:09:05;3.67;;;2.90;;
6269;SDS011;3168;51.684;6.954;2024-01-15T12:11:31;2.30;;;2.17;;
6269;SDS011;3168;51.684;6.954;2024-01-15T12:13:57;9.13;;;2.40;;
6269;SDS011;3168;51.684;6.954;2024-01-15T12:16:22;3.40;;;3.30;;
6269;SDS011;3168;51.684;6.954;2024-01-15T12:18:48;4.60;;;1.90;;
6269;SDS011;3168;51.684;6.954;2024-01-15T12:21:14;3.03;;;2.93;;
6269;SDS011;3168;51.684;6.954;2024-01-15T12:23:41;2.60;;;2.27;;
6269;SDS011;3168;51.684;6.954;2024-01-15T12:26:06;1.43;;;1.30;;
6269;SDS011;3168;51.684;6.954;2024-01-15T12:28:32;1.60;;;1.60;;
6269;SDS011;3168;51.684;6.954;2024-01-15T12:30:58;2.20;;;2.20;;
6269;SDS011;3168;51.684;6.954;2024-01-15T12:33:24;0.90;;;0.90;;
6269;SDS011;3168;51.684;6.954;2024-01-15T12:35:52;1.00;;;1.00;;
6269;SDS011;3168;51.684;6.954;2024-01-15T12:38:18;2.73;;;2.63;;
6269;SDS011;3168;51.684;6.954;2024-01-15T12:40:43;1.90;;;1.83;;
6269;SDS011;3168;51.684;6.954;2024-01-15T12:43:07;2.30;;;1.47;;
6269;SDS011;3168;51.684;6.954;2024-01-15T12:45:33;1.10;;;1.10;;
6269;SDS011;3168;51.684;6.954;2024-01-15T12:47:59;0.60;;;0.60;;
6269;SDS011;3168;51.684;6.954;2024-01-15T12:50:25;0.90;;;0.90;;
6269;SDS011;3168;51.684;6.954;2024-01-15T12:52:51;4.90;;;1.33;;
6269;SDS011;3168;51.684;6.954;2024-01-15T12:55:16;1.17;;;1.17;;
6269;SDS011;3168;51.684;6.954;2024-01-15T12:57:42;5.03;;;1.50;;
6269;SDS011;3168;51.684;6.954;2024-01-15T13:00:08;0.83;;;0.83;;
6269;SDS011;3168;51.684;6.954;2024-01-15T13:02:36;1.00;;;1.00;;
6269;SDS011;3168;51.684;6.954;2024-01-15T13:05:03;0.97;;;0.97;;
6269;SDS011;3168;51.684;6.954;2024-01-15T13:07:29;1.00;;;0.90;;
6269;SDS011;3168;51.684;6.954;2024-01-15T13:09:55;1.67;;;1.53;;
6269;SDS011;3168;51.684;6.954;2024-01-15T13:12:21;1.77;;;1.00;;
6269;SDS011;3168;51.684;6.954;2024-01-15T13:14:47;2.43;;;1.00;;
6269;SDS011;3168;51.684;6.954;2024-01-15T13:17:13;6.47;;;0.90;;
6269;SDS011;3168;51.684;6.954;2024-01-15T13:19:38;1.30;;;1.30;;
6269;SDS011;3168;51.684;6.954;2024-01-15T13:22:04;1.03;;;1.03;;
6269;SDS011;3168;51.684;6.954;2024-01-15T13:24:30;0.90;;;0.90;;
6269;SDS011;3168;51.684;6.954;2024-01-15T13:26:57;1.53;;;1.53;;
6269;SDS011;3168;51.684;6.954;2024-01-15T13:29:22;0.95;;;0.80;;
6269;SDS011;3168;51.684;6.954;2024-01-15T13:31:48;6.53;;;1.97;;
6269;SDS011;3168;51.684;6.954;2024-01-15T13:34:14;1.83;;;0.80;;
6269;SDS011;3168;51.684;6.954;2024-01-15T13:36:40;0.70;;;0.70;;
6269;SDS011;3168;51.684;6.954;2024-01-15T13:39:06;0.50;;;0.50;;
6269;SDS011;3168;51.684;6.954;2024-01-15T13:41:32;1.47;;;1.37;;
6269;SDS011;3168;51.684;6.954;2024-01-15T13:43:58;0.80;;;0.80;;
6269;SDS011;3168;51.684;6.954;2024-01-15T13:46:25;8.80;;;1.70;;
6269;SDS011;3168;51.684;6.954;2024-01-15T13:48:50;1.00;;;1.00;;
6269;SDS011;3168;51.684;6.954;2024-01-15T13:51:16;0.70;;;0.70;;
6269;SDS011;3168;51.684;6.954;2024-01-15T13:53:41;1.10;;;1.00;;
6269;SDS011;3168;51.684;6.954;2024-01-15T13:56:08;1.53;;;1.17;;
6269;SDS011;3168;51.684;6.954;2024-01-15T13:58:35;0.77;;;0.60;;
6269;SDS011;3168;51.684;6.954;2024-01-15T14:01:00;0.87;;;0.87;;
6269;SDS011;3168;51.684;6.954;2024-01-15T14:03:26;0.60;;;0.60;;
6269;SDS011;3168;51.684;6.954;2024-01-15T14:05:52;0.80;;;0.80;;
6269;SDS011;3168;51.684;6.954;2024-01-15T14:08:18;2.60;;;1.10;;
6269;SDS011;3168;51.684;6.954;2024-01-15T14:10:44;0.53;;;0.53;;
6269;SDS011;3168;51.684;6.954;2024-01-15T14:13:10;0.50;;;0.50;;
6269;SDS011;3168;51.684;6.954;2024-01-15T14:15:37;0.63;;;0.63;;
6269;SDS011;3168;51.684;6.954;2024-01-15T14:18:02;0.73;;;0.73;;
6269;SDS011;3168;51.684;6.954;2024-01-15T14:20:29;2.83;;;0.60;;
6269;SDS011;3168;51.684;6.954;2024-01-15T14:22:55;2.93;;;0.60;;
6269;SDS011;3168;51.684;6.954;2024-01-15T14:25:20;2.10;;;1.17;;
6269;SDS011;3168;51.684;6.954;2024-01-15T14:27:46;0.60;;;0.60;;
6269;SDS011;3168;51.684;6.954;2024-01-15T14:30:12;0.60;;;0.60;;
6269;SDS011;3168;51.684;6.954;2024-01-15T14:32:39;0.60;;;0.60;;
6269;SDS011;3168;51.684;6.954;2024-01-15T14:35:05;0.53;;;0.53;;
6269;SDS011;3168;51.684;6.954;2024-01-15T14:37:31;0.90;;;0.70;;
6269;SDS011;3168;51.684;6.954;2024-01-15T14:39:57;0.67;;;0.67;;
6269;SDS011;3168;51.684;6.954;2024-01-15T14:42:30;0.60;;;0.60;;
6269;SDS011;3168;51.684;6.954;2024-01-15T14:44:56;2.27;;;0.90;;
6269;SDS011;3168;51.684;6.954;2024-01-15T14:47:21;1.10;;;1.10;;
6269;SDS011;3168;51.684;6.954;2024-01-15T14:49:47;1.10;;;1.00;;
6269;SDS011;3168;51.684;6.954;2024-01-15T14:52:13;1.97;;;0.90;;
6269;SDS011;3168;51.684;6.954;2024-01-15T14:54:39;1.10;;;1.10;;
6269;SDS011;3168;51.684;6.954;2024-01-15T14:57:05;2.77;;;1.07;;
6269;SDS011;3168;51.684;6.954;2024-01-15T14:59:33;0.90;;;0.90;;
6269;SDS011;3168;51.684;6.954;2024-01-15T15:02:00;0.70;;;0.70;;
6269;SDS011;3168;51.684;6.954;2024-01-15T15:04:27;20.73;;;1.30;;
6269;SDS011;3168;51.684;6.954;2024-01-15T15:06:53;0.70;;;0.70;;
6269;SDS011;3168;51.684;6.954;2024-01-15T15:09:19;2.30;;;1.30;;
6269;SDS011;3168;51.684;6.954;2024-01-15T15:11:45;0.73;;;0.73;;